Dades meteomassalio
Diari Summary for Diciembre 08, 2017 Units:  English    Metric   Both
« Previous Day
Next Day »
Diari Semanal Mensual Anual Personalitzat
  Maxima: Minima: Mijana:
Temperatura: TemperatureC °F -5.6 °F 4.8 °F
Rosada: DewpointC °F -7.5 °F 0.5 °F
Humitat: Humidity % 58 % 74 %
Velocitat del vent: WindSpeedKMH mph 0.0 mph 13.9 mph
Racha vent: WindSpeedGustKMH mph - -
Vent:- - NW
Pressio: PressurehPa in 1026.6 in -
Pluja: 0.0 in    
Historical Graphs
 
 
Tabular Data for Diciembre 08, 2017
Time Temperature Dew Point Pressure Wind Wind Speed Wind Gust Humidity Rainfall Rate (Hourly) solar Conditions
TemperatureC °F DewpointC °F PressurehPa in Calm     Humidity % HourlyPrecipMM in SolarRadiationWatts/m^2 W/m2 Conditions
00:01 -4.4 °F -6.4 °F 1032.7 in Calm     86 % 0.0 in 0.0 W/m2 CLR
00:06 -4.4 °F -6.4 °F 1032.7 in Calm     86 % 0.0 in 0.0 W/m2 CLR
00:11 -4.4 °F -6.4 °F 1032.7 in Calm     86 % 0.0 in 0.0 W/m2 CLR
00:16 -4.4 °F -6.4 °F 1032.7 in Calm     86 % 0.0 in 0.0 W/m2 CLR
00:21 -4.4 °F -6.4 °F 1032.4 in Calm     86 % 0.0 in 0.0 W/m2 CLR
00:26 -5.0 °F -7.0 °F 1032.4 in Calm     86 % 0.0 in 0.0 W/m2 CLR
00:31 -5.0 °F -7.0 °F 1032.4 in Calm     86 % 0.0 in 0.0 W/m2 CLR
00:41 -5.0 °F -7.0 °F 1032.4 in Calm     86 % 0.0 in 0.0 W/m2 CLR
00:51 -5.0 °F -7.0 °F 1032.1 in Calm     86 % 0.0 in 0.0 W/m2 CLR
01:01 -5.6 °F -7.4 °F 1032.1 in Calm     87 % 0.0 in 0.0 W/m2 CLR
01:06 -5.6 °F -7.4 °F 1032.1 in WSW 4.8 mph 4.8 mph 87 % 0.0 in 0.0 W/m2 CLR
01:11 -5.6 °F -7.4 °F 1032.1 in WSW 1.9 mph   87 % 0.0 in 0.0 W/m2 CLR
01:16 -5.0 °F -6.8 °F 1032.1 in Calm     87 % 0.0 in 0.0 W/m2 CLR
01:26 -5.0 °F -6.8 °F 1032.1 in Calm     87 % 0.0 in 0.0 W/m2 CLR
01:41 -5.6 °F -7.4 °F 1031.7 in Calm     87 % 0.0 in 0.0 W/m2 CLR
01:51 -5.6 °F -7.4 °F 1031.7 in Calm     87 % 0.0 in 0.0 W/m2 CLR
01:56 -5.6 °F -7.2 °F 1031.7 in Calm     88 % 0.0 in 0.0 W/m2 CLR
02:11 -5.6 °F -7.4 °F 1031.7 in Calm     87 % 0.0 in 0.0 W/m2 CLR
02:16 -5.6 °F -7.4 °F 1031.7 in Calm     87 % 0.0 in 0.0 W/m2 CLR
02:26 -5.6 °F -7.4 °F 1031.7 in Calm     87 % 0.0 in 0.0 W/m2 CLR
02:31 -5.6 °F -7.5 °F 1031.7 in Calm     86 % 0.0 in 0.0 W/m2 CLR
02:36 -5.0 °F -7.0 °F 1031.7 in Calm     86 % 0.0 in 0.0 W/m2 CLR
02:41 -5.0 °F -7.0 °F 1031.7 in Calm     86 % 0.0 in 0.0 W/m2 CLR
02:46 -5.0 °F -7.0 °F 1031.7 in Calm     86 % 0.0 in 0.0 W/m2 CLR
02:51 -5.0 °F -7.0 °F 1031.4 in Calm     86 % 0.0 in 0.0 W/m2 CLR
03:01 -5.0 °F -6.8 °F 1031.4 in Calm     87 % 0.0 in 0.0 W/m2 CLR
03:11 -4.4 °F -6.3 °F 1031.7 in Calm     87 % 0.0 in 0.0 W/m2 CLR
03:21 -5.0 °F -6.8 °F 1031.7 in Calm     87 % 0.0 in 0.0 W/m2 CLR
03:26 -5.0 °F -6.8 °F 1031.4 in Calm     87 % 0.0 in 0.0 W/m2 CLR
03:31 -5.0 °F -6.7 °F 1031.4 in Calm     88 % 0.0 in 0.0 W/m2 CLR
03:41 -4.4 °F -6.3 °F 1031.4 in Calm     87 % 0.0 in 0.0 W/m2 CLR
04:01 -3.9 °F -5.7 °F 1031.0 in Calm     87 % 0.0 in 0.0 W/m2 CLR
04:06 -3.3 °F -5.2 °F 1031.0 in Calm     87 % 0.0 in 0.0 W/m2 CLR
04:14 -3.3 °F -5.2 °F 1031.0 in Calm     87 % 0.0 in 0.0 W/m2 CLR
04:19 -3.3 °F -5.2 °F 1031.0 in Calm     87 % 0.0 in 0.0 W/m2 CLR
04:21 -3.3 °F -5.2 °F 1031.0 in Calm     87 % 0.0 in 0.0 W/m2 CLR
04:22 -3.3 °F -5.2 °F 1031.0 in Calm     87 % 0.0 in 0.0 W/m2 CLR
04:26 -2.8 °F -4.8 °F 1030.7 in Calm     86 % 0.0 in 0.0 W/m2 CLR
04:31 -2.8 °F -4.8 °F 1030.7 in Calm     86 % 0.0 in 0.0 W/m2 CLR
04:37 -2.8 °F -4.8 °F 1030.7 in Calm     86 % 0.0 in 0.0 W/m2 CLR
04:42 -2.8 °F -4.7 °F 1030.7 in Calm     87 % 0.0 in 0.0 W/m2 CLR
04:47 -2.8 °F -4.8 °F 1030.7 in Calm     86 % 0.0 in 0.0 W/m2 CLR
04:52 -2.8 °F -4.9 °F 1030.7 in Calm     85 % 0.0 in 0.0 W/m2 CLR
04:57 -2.8 °F -4.9 °F 1030.4 in Calm     85 % 0.0 in 0.0 W/m2 CLR
05:02 -3.3 °F -5.5 °F 1030.4 in Calm     85 % 0.0 in 0.0 W/m2 CLR
05:12 -3.3 °F -5.5 °F 1030.4 in Calm     85 % 0.0 in 0.0 W/m2 CLR
05:17 -3.3 °F -5.5 °F 1030.4 in Calm     85 % 0.0 in 0.0 W/m2 CLR
05:22 -3.3 °F -5.5 °F 1030.0 in Calm     85 % 0.0 in 0.0 W/m2 CLR
05:27 -3.3 °F -5.5 °F 1030.0 in Calm     85 % 0.0 in 0.0 W/m2 CLR
05:32 -3.3 °F -5.3 °F 1030.0 in Calm   0.8 mph 86 % 0.0 in 0.0 W/m2 CLR
05:37 -2.8 °F -4.7 °F 1030.0 in West 3.7 mph 3.7 mph 87 % 0.0 in 0.0 W/m2 CLR
05:42 -2.8 °F -4.8 °F 1030.0 in Calm     86 % 0.0 in 0.0 W/m2 CLR
05:47 -2.8 °F -4.8 °F 1030.0 in Calm     86 % 0.0 in 0.0 W/m2 CLR
05:52 -2.8 °F -4.8 °F 1030.0 in Calm     86 % 0.0 in 0.0 W/m2 CLR
05:57 -2.8 °F -4.8 °F 1030.0 in Calm     86 % 0.0 in 0.0 W/m2 CLR
06:02 -2.8 °F -4.8 °F 1029.7 in Calm     86 % 0.0 in 0.0 W/m2 CLR
06:07 -2.8 °F -4.8 °F 1030.0 in Calm     86 % 0.0 in 0.0 W/m2 CLR
06:17 -2.8 °F -4.7 °F 1029.7 in Calm     87 % 0.0 in 0.0 W/m2 CLR
06:27 -2.2 °F -4.4 °F 1029.7 in Calm     85 % 0.0 in 0.0 W/m2 CLR
06:32 -2.2 °F -4.4 °F 1029.7 in Calm     85 % 0.0 in 0.0 W/m2 CLR
06:37 -2.2 °F -4.7 °F 1029.7 in Calm     83 % 0.0 in 0.0 W/m2 CLR
06:39 -2.2 °F -4.7 °F 1029.7 in Calm     83 % 0.0 in 0.0 W/m2 CLR
06:49 -2.2 °F -4.7 °F 1029.7 in Calm     83 % 0.0 in 0.0 W/m2 CLR
06:54 -2.2 °F -4.9 °F 1029.7 in East 3.7 mph 3.7 mph 82 % 0.0 in 0.0 W/m2 CLR
07:04 -1.7 °F -4.5 °F 1029.7 in Calm     81 % 0.0 in 0.0 W/m2 CLR
07:09 -1.7 °F -4.7 °F 1029.7 in Calm     80 % 0.0 in 0.0 W/m2 CLR
07:14 -1.7 °F -4.8 °F 1029.7 in Calm     79 % 0.0 in 0.0 W/m2 CLR
07:19 -1.7 °F -5.0 °F 1029.7 in Calm     78 % 0.0 in 0.0 W/m2 CLR
07:29 -1.7 °F -5.0 °F 1029.7 in Calm     78 % 0.0 in 0.0 W/m2 CLR
07:39 -1.7 °F -5.0 °F 1029.7 in Calm     78 % 0.0 in 0.0 W/m2 CLR
07:44 -1.1 °F -4.3 °F 1029.7 in Calm     79 % 0.0 in 0.0 W/m2 CLR
07:49 -1.1 °F -4.3 °F 1029.7 in Calm     79 % 0.0 in 0.0 W/m2 CLR
07:59 -1.7 °F -5.0 °F 1029.7 in Calm     78 % 0.0 in 0.0 W/m2 CLR
08:14 -1.7 °F -4.8 °F 1029.7 in Calm     79 % 0.0 in 0.0 W/m2 OVC
08:19 -1.7 °F -4.8 °F 1029.7 in Calm     79 % 0.0 in 5.0 W/m2 OVC
08:29 -1.7 °F -4.7 °F 1029.7 in Calm     80 % 0.0 in 14.0 W/m2 BKN
08:34 -1.7 °F -4.8 °F 1029.7 in Calm     79 % 0.0 in 18.0 W/m2 BKN
08:39 -1.7 °F -4.8 °F 1029.7 in Calm     79 % 0.0 in 23.0 W/m2 BKN
08:49 -1.7 °F -5.0 °F 1029.7 in Calm     78 % 0.0 in 18.0 W/m2 BKN
08:54 -1.7 °F -5.0 °F 1029.7 in Calm     78 % 0.0 in 19.0 W/m2 BKN
08:59 -1.1 °F -4.4 °F 1029.7 in Calm     78 % 0.0 in 14.0 W/m2 BKN
09:04 -1.1 °F -4.3 °F 1029.7 in Calm     79 % 0.0 in 16.0 W/m2 BKN
09:09 -1.1 °F -4.3 °F 1029.7 in Calm     79 % 0.0 in 21.0 W/m2 BKN
09:14 -1.1 °F -4.1 °F 1029.7 in Calm     80 % 0.0 in 18.0 W/m2 BKN
09:24 -1.7 °F -4.5 °F 1029.7 in Calm     81 % 0.0 in 23.0 W/m2 BKN
09:29 -1.7 °F -4.5 °F 1029.7 in Calm     81 % 0.0 in 26.0 W/m2 BKN
09:34 -1.7 °F -4.3 °F 1029.7 in Calm     82 % 0.0 in 132.0 W/m2 SCT
09:39 -1.1 °F -3.8 °F 1029.7 in Calm     82 % 0.0 in 130.0 W/m2 CLR
09:54 -0.6 °F -4.1 °F 1030.0 in Calm     77 % 0.0 in 181.0 W/m2 CLR
10:04 0.6 °F -3.4 °F 1030.0 in Calm     75 % 0.0 in 237.0 W/m2 CLR
10:14 2.2 °F -2.5 °F 1030.0 in Calm     71 % 0.0 in 151.0 W/m2 CLR
10:19 2.8 °F -2.2 °F 1030.0 in WNW 5.6 mph 5.6 mph 70 % 0.0 in 176.0 W/m2 CLR
10:24 3.3 °F -1.8 °F 1029.7 in NW 11.1 mph 11.1 mph 69 % 0.0 in 192.0 W/m2 CLR
10:34 5.6 °F -0.7 °F 1029.7 in NW 5.6 mph 5.6 mph 64 % 0.0 in 301.0 W/m2 CLR
10:54 9.4 °F 2.5 °F 1029.7 in NW 13.0 mph 13.0 mph 62 % 0.0 in 264.0 W/m2 CLR
10:59 10.0 °F 3.1 °F 1029.7 in NW 20.4 mph 20.4 mph 62 % 0.0 in 171.0 W/m2 CLR
11:19 10.6 °F 3.8 °F 1029.7 in NNW 18.5 mph 18.5 mph 63 % 0.0 in 151.0 W/m2 CLR
11:39 11.1 °F 4.3 °F 1029.7 in North 19.3 mph 19.3 mph 63 % 0.0 in 190.0 W/m2 CLR
11:44 11.1 °F 4.3 °F 1029.3 in NNW 24.1 mph 24.1 mph 63 % 0.0 in 178.0 W/m2 CLR
11:49 11.1 °F 4.3 °F 1029.3 in North 18.5 mph 18.5 mph 63 % 0.0 in 176.0 W/m2 CLR
11:59 11.1 °F 4.3 °F 1029.3 in NNW 19.3 mph 19.3 mph 63 % 0.0 in 204.0 W/m2 CLR
12:04 11.1 °F 4.3 °F 1029.3 in NNW 16.7 mph 16.7 mph 63 % 0.0 in 197.0 W/m2 CLR
12:14 11.7 °F 4.8 °F 1029.0 in North 13.0 mph 13.0 mph 63 % 0.0 in 223.0 W/m2 CLR
12:24 11.7 °F 4.6 °F 1029.0 in NNW 27.4 mph 27.4 mph 62 % 0.0 in 339.0 W/m2 CLR
12:29 12.2 °F 5.2 °F 1028.7 in NNW 29.6 mph 29.6 mph 62 % 0.0 in 302.0 W/m2 CLR
12:39 12.2 °F 4.9 °F 1028.7 in NNE 19.3 mph 19.3 mph 61 % 0.0 in 318.0 W/m2 CLR
12:44 12.2 °F 4.9 °F 1028.3 in North 16.7 mph 16.7 mph 61 % 0.0 in 239.0 W/m2 CLR
12:49 11.7 °F 4.2 °F 1028.3 in NNW 14.8 mph 14.8 mph 60 % 0.0 in 220.0 W/m2 CLR
12:54 11.7 °F 4.2 °F 1028.3 in NNW 18.5 mph 18.5 mph 60 % 0.0 in 234.0 W/m2 CLR
13:05 11.7 °F 4.4 °F 1028.3 in NNW 24.1 mph 24.1 mph 61 % 0.0 in 209.0 W/m2 CLR
13:10 11.7 °F 4.4 °F 1028.3 in NW 18.5 mph 18.5 mph 61 % 0.0 in 195.0 W/m2 CLR
13:15 12.2 °F 5.2 °F 1028.0 in NW 20.9 mph 20.9 mph 62 % 0.0 in 167.0 W/m2 CLR
13:20 12.2 °F 5.2 °F 1028.0 in NNW 25.9 mph 25.9 mph 62 % 0.0 in 158.0 W/m2 CLR
13:25 12.2 °F 4.9 °F 1028.0 in North 22.2 mph 22.2 mph 61 % 0.0 in 279.0 W/m2 CLR
13:30 12.8 °F 5.4 °F 1028.0 in NNW 22.5 mph 22.5 mph 61 % 0.0 in 320.0 W/m2 CLR
13:40 13.3 °F 5.5 °F 1027.7 in NNW 22.5 mph 22.5 mph 59 % 0.0 in 378.0 W/m2 CLR
13:45 13.9 °F 6.0 °F 1027.7 in NNW 25.7 mph 25.7 mph 59 % 0.0 in 461.0 W/m2 CLR
13:50 13.9 °F 6.0 °F 1027.7 in NNW 25.7 mph 25.7 mph 59 % 0.0 in 466.0 W/m2 CLR
13:55 13.9 °F 5.8 °F 1027.3 in NNW 27.8 mph 27.8 mph 58 % 0.0 in 436.0 W/m2 CLR
14:00 14.4 °F 6.3 °F 1027.3 in NNW 24.1 mph 24.1 mph 58 % 0.0 in 338.0 W/m2 CLR
14:15 13.9 °F 6.0 °F 1027.3 in North 19.3 mph 19.3 mph 59 % 0.0 in 176.0 W/m2 CLR
14:25 13.3 °F 5.7 °F 1027.7 in NNW 35.2 mph 35.2 mph 60 % 0.0 in 183.0 W/m2 CLR
14:30 13.3 °F 5.5 °F 1027.3 in NW 27.8 mph 27.8 mph 59 % 0.0 in 172.0 W/m2 CLR
14:35 13.3 °F 5.5 °F 1027.3 in North 30.6 mph 30.6 mph 59 % 0.0 in 127.0 W/m2 CLR
14:40 13.3 °F 5.7 °F 1027.3 in NNW 27.8 mph 27.8 mph 60 % 0.0 in 127.0 W/m2 CLR
14:45 13.3 °F 5.9 °F 1027.3 in NNW 32.2 mph 32.2 mph 61 % 0.0 in 104.0 W/m2 CLR
14:50 13.3 °F 5.9 °F 1027.3 in NNW 38.9 mph 38.9 mph 61 % 0.0 in 130.0 W/m2 CLR
14:55 13.3 °F 5.9 °F 1027.3 in North 37.0 mph 37.0 mph 61 % 0.0 in 153.0 W/m2 CLR
15:05 13.3 °F 5.9 °F 1027.0 in North 30.6 mph 30.6 mph 61 % 0.0 in 118.0 W/m2 CLR
15:10 13.3 °F 5.9 °F 1027.0 in North 29.0 mph 29.0 mph 61 % 0.0 in 113.0 W/m2 CLR
15:30 12.8 °F 5.7 °F 1027.0 in NNW 31.5 mph 31.5 mph 62 % 0.0 in 113.0 W/m2 CLR
15:35 13.3 °F 6.2 °F 1026.6 in NNW 29.0 mph 29.0 mph 62 % 0.0 in 306.0 W/m2 CLR
15:40 13.9 °F 6.5 °F 1026.6 in North 33.3 mph 33.3 mph 61 % 0.0 in 309.0 W/m2 CLR
15:45 13.9 °F 6.2 °F 1026.6 in NNW 35.2 mph 35.2 mph 60 % 0.0 in 318.0 W/m2 CLR
15:50 13.9 °F 6.2 °F 1026.6 in NNW 35.4 mph 35.4 mph 60 % 0.0 in 304.0 W/m2 CLR
15:55 13.9 °F 6.2 °F 1026.6 in NW 24.1 mph 24.1 mph 60 % 0.0 in 192.0 W/m2 CLR
16:00 13.9 °F 6.2 °F 1026.6 in North 31.5 mph 31.5 mph 60 % 0.0 in 153.0 W/m2 CLR
16:15 13.3 °F 5.9 °F 1026.6 in NW 29.6 mph 29.6 mph 61 % 0.0 in 60.0 W/m2 CLR
16:20 13.3 °F 5.9 °F 1026.6 in NNW 33.3 mph 33.3 mph 61 % 0.0 in 58.0 W/m2 FEW
16:25 12.8 °F 5.7 °F 1026.6 in North 31.5 mph 31.5 mph 62 % 0.0 in 86.0 W/m2 SCT
16:30 12.8 °F 5.7 °F 1026.6 in NW 24.1 mph 24.1 mph 62 % 0.0 in 114.0 W/m2 FEW
16:35 12.8 °F 5.4 °F 1026.6 in NNW 29.6 mph 29.6 mph 61 % 0.0 in 109.0 W/m2 CLR
16:40 12.8 °F 5.4 °F 1026.6 in NW 22.2 mph 22.2 mph 61 % 0.0 in 109.0 W/m2 CLR
16:45 12.8 °F 5.7 °F 1026.6 in NNW 29.6 mph 29.6 mph 62 % 0.0 in 91.0 W/m2 CLR
17:00 12.8 °F 5.9 °F 1027.0 in NW 31.5 mph 31.5 mph 63 % 0.0 in 39.0 W/m2 SCT
17:10 12.8 °F 6.1 °F 1027.0 in North 31.5 mph 31.5 mph 64 % 0.0 in 23.0 W/m2 BKN
17:15 12.2 °F 5.6 °F 1027.0 in NNW 31.5 mph 31.5 mph 64 % 0.0 in 18.0 W/m2 BKN
17:20 12.2 °F 5.6 °F 1027.0 in NW 24.1 mph 24.1 mph 64 % 0.0 in 11.0 W/m2 BKN
17:25 12.2 °F 5.6 °F 1027.0 in NW 29.6 mph 29.6 mph 64 % 0.0 in 7.0 W/m2 BKN
17:30 12.2 °F 5.8 °F 1027.0 in NNW 25.9 mph 25.9 mph 65 % 0.0 in 5.0 W/m2 OVC
17:35 12.2 °F 5.8 °F 1027.0 in NW 25.7 mph 25.7 mph 65 % 0.0 in 0.0 W/m2 OVC
17:40 12.2 °F 5.8 °F 1027.0 in NW 24.1 mph 24.1 mph 65 % 0.0 in 0.0 W/m2 OVC
17:45 11.7 °F 5.3 °F 1027.0 in NW 22.2 mph 22.2 mph 65 % 0.0 in 0.0 W/m2 CLR
17:50 11.7 °F 5.3 °F 1027.0 in NW 31.5 mph 31.5 mph 65 % 0.0 in 0.0 W/m2 CLR
17:55 11.7 °F 5.3 °F 1027.3 in North 25.9 mph 25.9 mph 65 % 0.0 in 0.0 W/m2 CLR
18:10 11.7 °F 5.5 °F 1027.0 in NW 20.4 mph 20.4 mph 66 % 0.0 in 0.0 W/m2 CLR
18:20 11.1 °F 5.2 °F 1027.0 in North 27.8 mph 27.8 mph 67 % 0.0 in 0.0 W/m2 CLR
18:25 11.1 °F 5.4 °F 1027.0 in North 31.5 mph 31.5 mph 68 % 0.0 in 0.0 W/m2 CLR
18:30 11.1 °F 5.6 °F 1027.0 in NNW 31.5 mph 31.5 mph 69 % 0.0 in 0.0 W/m2 CLR
18:40 11.1 °F 5.6 °F 1027.0 in NNW 25.9 mph 25.9 mph 69 % 0.0 in 0.0 W/m2 CLR
18:45 11.1 °F 5.8 °F 1027.0 in North 29.6 mph 29.6 mph 70 % 0.0 in 0.0 W/m2 CLR
18:50 11.1 °F 5.8 °F 1027.0 in NNE 19.3 mph 19.3 mph 70 % 0.0 in 0.0 W/m2 CLR
18:55 11.1 °F 5.8 °F 1027.0 in North 16.7 mph 16.7 mph 70 % 0.0 in 0.0 W/m2 CLR
19:00 11.1 °F 5.8 °F 1027.0 in North 31.5 mph 31.5 mph 70 % 0.0 in 0.0 W/m2 CLR
19:05 11.1 °F 5.8 °F 1027.0 in NNW 32.2 mph 32.2 mph 70 % 0.0 in 0.0 W/m2 CLR
19:10 11.1 °F 5.8 °F 1027.3 in NNW 38.6 mph 38.6 mph 70 % 0.0 in 0.0 W/m2 CLR
19:15 11.1 °F 5.8 °F 1027.0 in NW 25.9 mph 25.9 mph 70 % 0.0 in 0.0 W/m2 CLR
19:20 11.1 °F 5.8 °F 1027.0 in NW 18.5 mph 18.5 mph 70 % 0.0 in 0.0 W/m2 CLR
19:25 10.6 °F 5.3 °F 1027.0 in NNW 27.4 mph 27.4 mph 70 % 0.0 in 0.0 W/m2 CLR
19:45 10.6 °F 5.7 °F 1027.3 in North 38.9 mph 38.9 mph 72 % 0.0 in 0.0 W/m2 CLR
20:00 10.6 °F 5.7 °F 1027.3 in NNW 30.6 mph 30.6 mph 72 % 0.0 in 0.0 W/m2 CLR
20:05 10.6 °F 5.7 °F 1027.3 in NNW 31.5 mph 31.5 mph 72 % 0.0 in 0.0 W/m2 CLR
20:10 10.0 °F 5.2 °F 1027.3 in North 20.9 mph 20.9 mph 72 % 0.0 in 0.0 W/m2 CLR
20:15 10.0 °F 5.4 °F 1027.3 in North 27.8 mph 27.8 mph 73 % 0.0 in 0.0 W/m2 CLR
20:20 10.0 °F 5.4 °F 1027.3 in North 27.4 mph 27.4 mph 73 % 0.0 in 0.0 W/m2 CLR
20:30 9.4 °F 5.1 °F 1027.3 in NNW 29.6 mph 29.6 mph 74 % 0.0 in 0.0 W/m2 CLR
20:35 9.4 °F 5.1 °F 1027.0 in NNW 27.8 mph 27.8 mph 74 % 0.0 in 0.0 W/m2 CLR
20:40 9.4 °F 5.1 °F 1027.0 in NW 19.3 mph 19.3 mph 74 % 0.0 in 0.0 W/m2 CLR
20:45 9.4 °F 5.2 °F 1027.0 in NNW 25.9 mph 25.9 mph 75 % 0.0 in 0.0 W/m2 CLR
20:50 9.4 °F 5.2 °F 1027.0 in NW 27.8 mph 27.8 mph 75 % 0.0 in 0.0 W/m2 CLR
20:55 9.4 °F 5.2 °F 1027.0 in NNW 27.8 mph 27.8 mph 75 % 0.0 in 0.0 W/m2 CLR
21:00 9.4 °F 5.4 °F 1027.0 in North 22.5 mph 22.5 mph 76 % 0.0 in 0.0 W/m2 CLR
21:10 9.4 °F 5.4 °F 1027.0 in NNW 20.4 mph 20.4 mph 76 % 0.0 in 0.0 W/m2 CLR
21:15 9.4 °F 5.4 °F 1027.3 in NW 18.5 mph 18.5 mph 76 % 0.0 in 0.0 W/m2 CLR
21:20 9.4 °F 5.6 °F 1027.0 in NW 27.8 mph 27.8 mph 77 % 0.0 in 0.0 W/m2 CLR
21:25 9.4 °F 5.6 °F 1027.0 in NNW 25.7 mph 25.7 mph 77 % 0.0 in 0.0 W/m2 CLR
21:30 9.4 °F 5.6 °F 1027.0 in NW 25.9 mph 25.9 mph 77 % 0.0 in 0.0 W/m2 CLR
21:35 8.9 °F 5.1 °F 1027.0 in North 24.1 mph 24.1 mph 77 % 0.0 in 0.0 W/m2 CLR
21:40 8.9 °F 5.1 °F 1027.0 in NNW 20.4 mph 20.4 mph 77 % 0.0 in 0.0 W/m2 CLR
21:45 8.9 °F 5.1 °F 1027.0 in NNW 18.5 mph 18.5 mph 77 % 0.0 in 0.0 W/m2 CLR
21:50 8.9 °F 5.3 °F 1027.0 in NW 18.5 mph 18.5 mph 78 % 0.0 in 0.0 W/m2 CLR
21:55 8.9 °F 5.3 °F 1027.3 in NNW 22.2 mph 22.2 mph 78 % 0.0 in 0.0 W/m2 CLR
22:05 8.9 °F 5.3 °F 1027.3 in North 20.4 mph 20.4 mph 78 % 0.0 in 0.0 W/m2 CLR
22:10 8.9 °F 5.3 °F 1027.3 in North 25.9 mph 25.9 mph 78 % 0.0 in 0.0 W/m2 CLR
22:15 8.9 °F 5.1 °F 1027.3 in NNW 24.1 mph 24.1 mph 77 % 0.0 in 0.0 W/m2 CLR
22:20 8.3 °F 4.7 °F 1027.3 in North 29.6 mph 29.6 mph 78 % 0.0 in 0.0 W/m2 CLR
22:25 8.3 °F 4.6 °F 1027.3 in WNW 16.7 mph 16.7 mph 77 % 0.0 in 0.0 W/m2 CLR
22:30 8.3 °F 4.6 °F 1027.3 in NNW 18.5 mph 18.5 mph 77 % 0.0 in 0.0 W/m2 CLR
22:35 8.3 °F 4.7 °F 1027.3 in NW 18.5 mph 18.5 mph 78 % 0.0 in 0.0 W/m2 CLR
22:40 8.3 °F 4.6 °F 1027.3 in North 13.0 mph 13.0 mph 77 % 0.0 in 0.0 W/m2 CLR
22:46 8.3 °F 4.6 °F 1027.3 in NW 22.2 mph 22.2 mph 77 % 0.0 in 0.0 W/m2 CLR
22:56 8.3 °F 4.7 °F 1027.3 in WNW 11.1 mph 11.1 mph 78 % 0.0 in 0.0 W/m2 CLR
22:57 7.8 °F 4.2 °F 1027.3 in NW 5.6 mph   78 % 0.0 in 0.0 W/m2 CLR
23:02 7.8 °F 4.2 °F 1027.3 in WNW 13.0 mph 13.0 mph 78 % 0.0 in 0.0 W/m2 CLR
23:07 7.8 °F 4.2 °F 1027.0 in NNW 14.5 mph 14.5 mph 78 % 0.0 in 0.0 W/m2 CLR
23:12 7.8 °F 4.0 °F 1027.0 in NW 12.9 mph 12.9 mph 77 % 0.0 in 0.0 W/m2 CLR
23:22 7.8 °F 3.8 °F 1027.0 in NNW 29.0 mph 29.0 mph 76 % 0.0 in 0.0 W/m2 CLR
23:32 7.8 °F 3.6 °F 1027.0 in NW 22.2 mph 22.2 mph 75 % 0.0 in 0.0 W/m2 CLR
23:42 7.8 °F 3.6 °F 1027.3 in NW 24.1 mph 24.1 mph 75 % 0.0 in 0.0 W/m2 CLR
23:47 7.8 °F 3.4 °F 1027.3 in West 17.7 mph 17.7 mph 74 % 0.0 in 0.0 W/m2 CLR
23:52 7.8 °F 3.6 °F 1027.3 in NW 16.7 mph 16.7 mph 75 % 0.0 in 0.0 W/m2 CLR
23:57 7.8 °F 3.6 °F 1027.3 in North 22.2 mph 22.2 mph 75 % 0.0 in 0.0 W/m2 CLR
Lo Temps de Massalio
Compliments of Weather Underground - 1 mb